createdAt,value
2022-09-28T00:02:00.989Z,11.26
2022-09-28T00:04:28.653Z,11.69
2022-09-28T00:06:55.094Z,11.56
2022-09-28T00:09:21.691Z,11.73
2022-09-28T00:11:48.222Z,11.60
2022-09-28T00:14:15.274Z,11.55
2022-09-28T00:16:44.983Z,11.73
2022-09-28T00:19:13.008Z,11.57
2022-09-28T00:21:40.683Z,11.13
2022-09-28T00:24:17.244Z,10.92
2022-09-28T00:26:51.214Z,11.23
2022-09-28T00:29:29.399Z,10.98
2022-09-28T00:32:02.517Z,11.11
2022-09-28T00:34:34.655Z,11.25
2022-09-28T00:37:02.419Z,10.71
2022-09-28T00:39:31.598Z,11.04
2022-09-28T00:41:58.712Z,10.89
2022-09-28T00:44:25.423Z,11.24
2022-09-28T00:47:10.170Z,10.85
2022-09-28T00:49:54.829Z,10.99
2022-09-28T00:52:26.922Z,11.08
2022-09-28T00:54:53.654Z,11.16
2022-09-28T00:57:21.308Z,10.84
2022-09-28T00:59:49.450Z,11.10
2022-09-28T01:02:16.061Z,10.78
2022-09-28T01:04:42.635Z,9.99
2022-09-28T01:07:09.894Z,10.03
2022-09-28T01:09:40.647Z,10.05
2022-09-28T01:12:07.924Z,10.29
2022-09-28T01:14:34.582Z,10.41
2022-09-28T01:17:13.517Z,10.42
2022-09-28T01:20:15.512Z,10.31
2022-09-28T01:22:41.908Z,9.71
2022-09-28T01:25:28.193Z,9.67
2022-09-28T01:27:58.682Z,9.77
2022-09-28T01:30:25.330Z,9.87
2022-09-28T01:33:01.903Z,9.65
2022-09-28T01:35:33.482Z,9.39
2022-09-28T01:38:03.658Z,9.80
2022-09-28T01:40:31.370Z,9.81
2022-09-28T01:43:03.296Z,9.52
2022-09-28T01:45:34.061Z,9.70
2022-09-28T01:48:03.761Z,9.82
2022-09-28T01:50:35.506Z,10.06
2022-09-28T01:53:30.048Z,10.22
2022-09-28T01:56:00.557Z,10.28
2022-09-28T01:58:32.618Z,10.30
2022-09-28T02:01:09.684Z,10.51
2022-09-28T02:03:42.314Z,10.13
2022-09-28T02:06:14.628Z,9.81
2022-09-28T02:08:50.384Z,9.90
2022-09-28T02:11:20.571Z,10.04
2022-09-28T02:13:54.188Z,10.25
2022-09-28T02:16:35.976Z,10.08
2022-09-28T02:19:03.795Z,10.26
2022-09-28T02:21:58.551Z,10.55
2022-09-28T02:24:35.750Z,10.73
2022-09-28T02:27:16.301Z,10.47
2022-09-28T02:29:42.990Z,10.95
2022-09-28T02:32:10.396Z,10.91
2022-09-28T02:34:36.942Z,11.03
2022-09-28T02:37:03.810Z,11.04
2022-09-28T02:39:30.363Z,10.88
2022-09-28T02:42:28.003Z,10.73
2022-09-28T02:45:20.882Z,10.83
2022-09-28T02:48:01.398Z,10.83
2022-09-28T02:50:36.887Z,10.65
2022-09-28T02:53:24.785Z,10.53
2022-09-28T02:56:00.488Z,10.77
2022-09-28T02:58:55.007Z,10.83
2022-09-28T03:01:29.574Z,10.96
2022-09-28T03:04:40.858Z,11.03
2022-09-28T03:07:16.657Z,11.12
2022-09-28T03:09:52.489Z,11.31
2022-09-28T03:12:20.856Z,11.32
2022-09-28T03:14:47.346Z,10.99
2022-09-28T03:17:16.643Z,11.22
2022-09-28T03:19:43.157Z,11.27
2022-09-28T03:22:09.591Z,11.61
2022-09-28T03:24:36.292Z,11.08
2022-09-28T03:27:02.808Z,11.13
2022-09-28T03:29:32.932Z,10.55
2022-09-28T03:31:59.598Z,10.71
2022-09-28T03:34:26.177Z,10.65
2022-09-28T03:36:52.654Z,10.51
2022-09-28T03:39:19.153Z,10.93
2022-09-28T03:41:45.706Z,11.68
2022-09-28T03:44:12.179Z,11.85
2022-09-28T03:46:38.722Z,11.71
2022-09-28T03:49:05.335Z,11.33
2022-09-28T03:51:32.331Z,11.74
2022-09-28T03:53:58.936Z,11.95
2022-09-28T03:56:26.130Z,12.05
2022-09-28T03:58:52.628Z,12.28
2022-09-28T04:01:19.127Z,12.54
2022-09-28T04:03:46.398Z,12.31
2022-09-28T04:06:13.807Z,11.33
2022-09-28T04:08:40.322Z,11.25
2022-09-28T04:11:06.809Z,11.13
2022-09-28T04:13:33.293Z,11.13
2022-09-28T04:16:01.174Z,11.05
2022-09-28T04:18:28.551Z,10.94
2022-09-28T04:21:15.489Z,11.35
2022-09-28T04:23:42.412Z,11.29
2022-09-28T04:26:16.614Z,10.96
2022-09-28T04:29:06.360Z,10.70
2022-09-28T04:31:47.826Z,11.14
2022-09-28T04:34:17.328Z,11.15
2022-09-28T04:36:45.169Z,11.43
2022-09-28T04:39:12.707Z,11.67
2022-09-28T04:41:39.870Z,11.87
2022-09-28T04:44:06.596Z,11.60
2022-09-28T04:46:33.175Z,11.42
2022-09-28T04:48:59.697Z,11.47
2022-09-28T04:51:26.158Z,12.06
2022-09-28T04:53:52.698Z,11.45
2022-09-28T04:56:20.261Z,11.53
2022-09-28T04:58:51.804Z,10.88
2022-09-28T05:01:23.325Z,11.24
2022-09-28T05:03:51.146Z,11.72
2022-09-28T05:06:17.937Z,11.46
2022-09-28T05:08:46.794Z,11.24
2022-09-28T05:11:13.837Z,11.38
2022-09-28T05:13:43.459Z,11.27
2022-09-28T05:16:10.352Z,11.29
2022-09-28T05:18:36.955Z,11.26
2022-09-28T05:21:04.539Z,11.54
2022-09-28T05:23:34.315Z,11.74
2022-09-28T05:26:02.228Z,11.04
2022-09-28T05:28:29.957Z,10.77
2022-09-28T05:31:02.710Z,10.80
2022-09-28T05:33:29.350Z,11.20
2022-09-28T05:36:00.299Z,11.59
2022-09-28T05:38:27.795Z,11.23
2022-09-28T05:40:54.504Z,11.09
2022-09-28T05:43:21.028Z,10.80
2022-09-28T05:45:52.912Z,10.26
2022-09-28T05:48:21.685Z,11.12
2022-09-28T05:50:52.450Z,10.88
2022-09-28T05:53:20.099Z,11.02
2022-09-28T05:55:46.609Z,10.30
2022-09-28T05:58:13.374Z,10.43
2022-09-28T06:00:40.262Z,10.81
2022-09-28T06:03:12.428Z,11.00
2022-09-28T06:05:39.675Z,11.26
2022-09-28T06:08:08.248Z,11.42
2022-09-28T06:10:35.030Z,11.24
2022-09-28T06:13:02.235Z,11.80
2022-09-28T06:15:31.680Z,11.65
2022-09-28T06:18:03.906Z,11.28
2022-09-28T06:20:33.335Z,11.64
2022-09-28T06:22:59.821Z,11.53
2022-09-28T06:25:27.653Z,11.05
2022-09-28T06:27:58.830Z,11.44
2022-09-28T06:30:27.295Z,11.77
2022-09-28T06:32:58.965Z,11.73
2022-09-28T06:35:27.047Z,11.56
2022-09-28T06:37:53.997Z,11.42
2022-09-28T06:40:21.675Z,11.49
2022-09-28T06:43:10.295Z,11.64
2022-09-28T06:45:37.652Z,12.00
2022-09-28T06:48:04.753Z,10.93
2022-09-28T06:50:37.491Z,10.39
2022-09-28T06:53:06.700Z,11.71
2022-09-28T06:55:33.272Z,12.33
2022-09-28T06:58:04.354Z,11.86
2022-09-28T07:00:33.942Z,12.84
2022-09-28T07:03:02.578Z,13.11
2022-09-28T07:05:29.949Z,13.25
2022-09-28T07:07:56.963Z,13.53
2022-09-28T07:10:27.731Z,13.62
2022-09-28T07:12:55.342Z,13.72
2022-09-28T07:15:22.618Z,13.18
2022-09-28T07:18:00.371Z,12.84
2022-09-28T07:20:30.225Z,12.38
2022-09-28T07:23:08.086Z,12.38
2022-09-28T07:25:45.504Z,12.76
2022-09-28T07:28:12.310Z,12.78
2022-09-28T07:30:38.858Z,13.30
2022-09-28T07:33:07.303Z,12.86
2022-09-28T07:35:34.384Z,12.67
2022-09-28T07:38:03.678Z,12.88
2022-09-28T07:40:49.947Z,12.11
2022-09-28T07:43:20.615Z,12.47
2022-09-28T07:45:55.703Z,12.38
2022-09-28T07:48:22.595Z,12.30
2022-09-28T07:50:52.465Z,12.58
2022-09-28T07:53:20.186Z,12.42
2022-09-28T07:56:05.623Z,12.87
2022-09-28T07:58:32.934Z,12.64
2022-09-28T08:01:06.810Z,11.79
2022-09-28T08:03:35.054Z,11.99
2022-09-28T08:06:04.078Z,12.23
2022-09-28T08:08:31.553Z,12.33
2022-09-28T08:10:58.355Z,12.04
2022-09-28T08:13:27.160Z,12.34
2022-09-28T08:15:54.479Z,11.95
2022-09-28T08:18:21.397Z,12.82
2022-09-28T08:21:06.570Z,13.08
2022-09-28T08:23:33.038Z,12.88
2022-09-28T08:25:59.531Z,12.91
2022-09-28T08:28:26.219Z,12.84
2022-09-28T08:30:54.215Z,12.89
2022-09-28T08:33:21.688Z,13.19
2022-09-28T08:35:54.477Z,13.57
2022-09-28T08:38:21.330Z,12.67
2022-09-28T08:40:57.502Z,12.51
2022-09-28T08:43:34.287Z,13.47
2022-09-28T08:46:01.207Z,13.48
2022-09-28T08:48:56.338Z,13.90
2022-09-28T08:51:44.384Z,13.19
2022-09-28T08:54:36.045Z,13.50
2022-09-28T08:57:19.600Z,13.35
2022-09-28T08:59:53.285Z,14.12
2022-09-28T09:02:27.643Z,13.25
2022-09-28T09:04:54.731Z,14.02
2022-09-28T09:07:42.571Z,14.45
2022-09-28T09:10:17.417Z,14.11
2022-09-28T09:12:58.661Z,13.85
2022-09-28T09:15:47.689Z,14.20
2022-09-28T09:18:20.071Z,13.09
2022-09-28T09:20:59.686Z,13.44
2022-09-28T09:23:38.330Z,13.73
2022-09-28T09:26:22.140Z,13.68
2022-09-28T09:29:17.599Z,14.02
2022-09-28T09:32:04.253Z,13.90
2022-09-28T09:34:38.019Z,13.37
2022-09-28T09:37:10.573Z,13.56
2022-09-28T09:40:01.300Z,13.43
2022-09-28T09:42:49.940Z,13.38
2022-09-28T09:45:47.946Z,12.87
2022-09-28T09:48:20.838Z,13.17
2022-09-28T09:50:57.356Z,13.37
2022-09-28T09:53:28.902Z,12.81
2022-09-28T09:56:06.048Z,12.14
2022-09-28T09:58:41.097Z,12.52
2022-09-28T10:01:10.920Z,12.45
2022-09-28T10:03:41.678Z,12.86
2022-09-28T10:06:27.396Z,12.99
2022-09-28T10:09:19.191Z,12.99
2022-09-28T10:11:50.169Z,11.95
2022-09-28T10:14:19.968Z,12.86
2022-09-28T10:16:48.453Z,12.16
2022-09-28T10:19:16.764Z,12.57
2022-09-28T10:21:43.602Z,13.07
2022-09-28T10:24:16.902Z,13.35
2022-09-28T10:26:47.249Z,13.65
2022-09-28T10:29:17.717Z,12.85
2022-09-28T10:31:47.216Z,12.70
2022-09-28T10:34:15.522Z,13.20
2022-09-28T10:36:50.157Z,13.86
2022-09-28T10:39:50.555Z,14.27
2022-09-28T10:42:36.175Z,14.10
2022-09-28T10:45:05.250Z,14.69
2022-09-28T10:47:32.746Z,15.06
2022-09-28T10:49:59.883Z,14.35
2022-09-28T10:52:33.901Z,14.99
2022-09-28T10:55:00.843Z,14.82
2022-09-28T10:57:35.989Z,14.84
2022-09-28T11:00:06.486Z,14.82
2022-09-28T11:02:37.700Z,15.59
2022-09-28T11:05:06.233Z,15.77
2022-09-28T11:07:34.098Z,14.82
2022-09-28T11:10:01.345Z,14.76
2022-09-28T11:12:35.250Z,13.90
2022-09-28T11:15:06.482Z,14.05
2022-09-28T11:17:33.828Z,14.86
2022-09-28T11:20:02.621Z,14.76
2022-09-28T11:22:36.351Z,14.18
2022-09-28T11:25:32.062Z,13.34
2022-09-28T11:27:59.999Z,13.46
2022-09-28T11:30:40.625Z,13.16
2022-09-28T11:33:12.037Z,12.74
2022-09-28T11:36:12.692Z,13.35
2022-09-28T11:39:11.617Z,13.88
2022-09-28T11:42:16.194Z,14.59
2022-09-28T11:44:46.427Z,14.79
2022-09-28T11:47:29.636Z,14.77
2022-09-28T11:50:25.366Z,14.80
2022-09-28T11:52:58.202Z,15.14
2022-09-28T11:55:31.422Z,15.73
2022-09-28T11:58:11.806Z,16.44
2022-09-28T12:00:44.187Z,16.42
2022-09-28T12:03:41.230Z,15.62
2022-09-28T12:06:15.560Z,16.38
2022-09-28T12:08:48.730Z,16.35
2022-09-28T12:11:21.407Z,15.45
2022-09-28T12:13:49.927Z,15.80
2022-09-28T12:16:53.683Z,15.54
2022-09-28T12:19:27.482Z,15.06
2022-09-28T12:21:56.870Z,16.32
2022-09-28T12:24:29.449Z,17.43
2022-09-28T12:27:11.374Z,17.88
2022-09-28T12:29:49.732Z,18.10
2022-09-28T12:32:28.453Z,16.75
2022-09-28T12:34:55.898Z,17.23
2022-09-28T12:37:41.281Z,18.83
2022-09-28T12:40:07.931Z,18.78
2022-09-28T12:43:06.999Z,19.47
2022-09-28T12:45:59.772Z,19.58
2022-09-28T12:48:53.096Z,18.81
2022-09-28T12:51:36.902Z,19.00
2022-09-28T12:54:18.750Z,18.15
2022-09-28T12:56:52.217Z,18.31
2022-09-28T12:59:29.186Z,18.68
2022-09-28T13:02:31.144Z,18.12
2022-09-28T13:05:33.922Z,18.44
2022-09-28T13:08:09.666Z,17.77
2022-09-28T13:10:52.215Z,18.11
2022-09-28T13:13:21.790Z,16.77
2022-09-28T13:16:09.533Z,16.28
2022-09-28T13:18:57.298Z,16.78
2022-09-28T13:21:41.689Z,16.05
2022-09-28T13:24:31.184Z,15.30
2022-09-28T13:27:04.545Z,16.31
2022-09-28T13:29:32.032Z,15.69
2022-09-28T13:31:59.354Z,15.99
2022-09-28T13:34:28.941Z,16.41
2022-09-28T13:37:11.203Z,16.63
2022-09-28T13:39:56.613Z,16.44
2022-09-28T13:42:35.299Z,16.66
2022-09-28T13:45:19.980Z,16.44
2022-09-28T13:47:52.493Z,16.88
2022-09-28T13:50:43.188Z,17.11
2022-09-28T13:53:22.899Z,16.67
2022-09-28T13:56:23.530Z,16.89
2022-09-28T13:59:03.610Z,16.81
2022-09-28T14:01:35.711Z,16.78
2022-09-28T14:04:11.662Z,16.82
2022-09-28T14:06:47.479Z,16.46
2022-09-28T14:09:16.037Z,15.64
2022-09-28T14:12:00.275Z,15.98
2022-09-28T14:15:02.607Z,15.81
2022-09-28T14:17:31.747Z,15.82
2022-09-28T14:20:11.083Z,16.23
2022-09-28T14:23:00.735Z,16.20
2022-09-28T14:25:31.307Z,16.80
2022-09-28T14:28:19.089Z,16.63
2022-09-28T14:30:54.030Z,16.19
2022-09-28T14:33:20.621Z,16.66
2022-09-28T14:36:08.080Z,16.91
2022-09-28T14:38:54.262Z,16.57
2022-09-28T14:41:34.579Z,15.91
2022-09-28T14:44:02.787Z,15.94
2022-09-28T14:46:30.937Z,16.15
2022-09-28T14:49:23.192Z,16.31
2022-09-28T14:51:58.402Z,16.06
2022-09-28T14:54:26.920Z,17.17
2022-09-28T14:56:53.617Z,17.59
2022-09-28T14:59:20.134Z,17.70
2022-09-28T15:02:03.711Z,17.22
2022-09-28T15:04:30.875Z,17.46
2022-09-28T15:06:58.081Z,16.66
2022-09-28T15:09:35.108Z,17.01
2022-09-28T15:12:13.080Z,16.58
2022-09-28T15:15:02.388Z,16.63
2022-09-28T15:17:39.559Z,17.10
2022-09-28T15:20:36.998Z,16.16
2022-09-28T15:23:03.950Z,16.56
2022-09-28T15:25:33.910Z,16.40
2022-09-28T15:28:03.509Z,15.75
2022-09-28T15:30:32.029Z,15.79
2022-09-28T15:33:19.306Z,16.06
2022-09-28T15:35:54.812Z,16.34
2022-09-28T15:38:21.662Z,16.29
2022-09-28T15:40:48.352Z,16.74
2022-09-28T15:43:32.672Z,17.18
2022-09-28T15:46:13.869Z,15.85
2022-09-28T15:48:41.168Z,15.86
2022-09-28T15:51:12.554Z,15.78
2022-09-28T15:53:52.893Z,15.71
2022-09-28T15:56:19.526Z,15.25
2022-09-28T15:59:14.840Z,15.89
2022-09-28T16:01:45.187Z,16.06
2022-09-28T16:04:37.568Z,16.23
2022-09-28T16:07:10.174Z,16.26
2022-09-28T16:09:56.656Z,16.13
2022-09-28T16:12:24.685Z,16.25
2022-09-28T16:14:52.073Z,15.96
2022-09-28T16:17:32.693Z,15.64
2022-09-28T16:20:05.497Z,15.93
2022-09-28T16:22:32.782Z,15.54
2022-09-28T16:25:00.834Z,15.25
2022-09-28T16:27:45.742Z,15.40
2022-09-28T16:30:20.973Z,15.44
2022-09-28T16:32:56.553Z,15.23
2022-09-28T16:35:25.760Z,15.34
2022-09-28T16:38:05.524Z,15.22
2022-09-28T16:40:32.840Z,15.11
2022-09-28T16:43:03.359Z,14.89
2022-09-28T16:45:29.946Z,14.65
2022-09-28T16:47:57.437Z,14.65
2022-09-28T16:50:25.014Z,14.38
2022-09-28T16:53:34.672Z,14.70
2022-09-28T16:56:02.415Z,14.83
2022-09-28T16:58:31.141Z,15.04
2022-09-28T17:00:58.749Z,14.84
2022-09-28T17:03:26.085Z,14.64
2022-09-28T17:05:52.885Z,14.51
2022-09-28T17:08:22.191Z,14.52
2022-09-28T17:13:41.163Z,14.30
2022-09-28T17:16:20.985Z,14.57
2022-09-28T17:18:51.781Z,14.29
2022-09-28T17:21:19.908Z,13.85
2022-09-28T17:23:48.074Z,14.11
2022-09-28T17:26:19.965Z,13.88
2022-09-28T17:28:46.485Z,13.50
2022-09-28T17:31:16.905Z,13.81
2022-09-28T17:33:43.678Z,14.21
2022-09-28T17:36:14.355Z,13.78
2022-09-28T17:38:42.832Z,14.04
2022-09-28T17:41:19.369Z,14.07
2022-09-28T17:43:46.914Z,13.96
2022-09-28T17:46:31.671Z,14.09
2022-09-28T17:48:59.866Z,13.87
2022-09-28T17:51:31.348Z,13.45
2022-09-28T17:53:58.814Z,13.87
2022-09-28T17:56:28.579Z,13.92
2022-09-28T17:59:00.227Z,13.96
2022-09-28T18:01:29.960Z,13.61
2022-09-28T18:03:56.495Z,13.42
2022-09-28T18:06:23.688Z,13.71
2022-09-28T18:08:50.221Z,13.82
2022-09-28T18:11:17.367Z,13.97
2022-09-28T18:13:45.905Z,13.60
2022-09-28T18:16:13.107Z,13.32
2022-09-28T18:18:39.910Z,13.25
2022-09-28T18:21:07.372Z,13.34
2022-09-28T18:23:39.882Z,13.48
2022-09-28T18:26:13.876Z,13.19
2022-09-28T18:28:40.782Z,13.62
2022-09-28T18:31:12.131Z,13.84
2022-09-28T18:33:51.280Z,12.97
2022-09-28T18:36:17.698Z,13.55
2022-09-28T18:38:46.927Z,13.27
2022-09-28T18:41:15.539Z,13.33
2022-09-28T18:43:49.196Z,13.78
2022-09-28T18:46:17.603Z,13.40
2022-09-28T18:48:44.323Z,13.45
2022-09-28T18:51:11.916Z,13.41
2022-09-28T18:53:38.897Z,13.54
2022-09-28T18:56:09.859Z,13.81
2022-09-28T18:58:37.553Z,13.05
2022-09-28T19:01:33.536Z,13.06
2022-09-28T19:04:01.650Z,13.13
2022-09-28T19:06:28.558Z,13.36
2022-09-28T19:08:55.818Z,12.88
2022-09-28T19:11:23.068Z,13.13
2022-09-28T19:13:49.667Z,13.25
2022-09-28T19:16:18.354Z,13.26
2022-09-28T19:18:45.037Z,13.37
2022-09-28T19:21:13.655Z,12.77
2022-09-28T19:23:44.707Z,12.99
2022-09-28T19:26:15.720Z,13.00
2022-09-28T19:28:42.379Z,13.23
2022-09-28T19:31:09.215Z,11.97
2022-09-28T19:33:36.635Z,12.53
2022-09-28T19:36:11.464Z,12.37
2022-09-28T19:38:39.146Z,12.52
2022-09-28T19:41:10.523Z,12.10
2022-09-28T19:43:37.347Z,12.33
2022-09-28T19:46:07.902Z,12.43
2022-09-28T19:48:34.714Z,12.43
2022-09-28T19:51:06.165Z,12.66
2022-09-28T19:53:36.609Z,12.84
2022-09-28T19:56:05.316Z,12.41
2022-09-28T19:58:34.852Z,12.63
2022-09-28T20:01:06.386Z,12.26
2022-09-28T20:03:34.092Z,12.00
2022-09-28T20:06:01.710Z,12.50
2022-09-28T20:08:30.166Z,12.15
2022-09-28T20:10:59.523Z,12.40
2022-09-28T20:13:34.400Z,12.63
2022-09-28T20:16:08.998Z,12.78
2022-09-28T20:18:38.203Z,12.98
2022-09-28T20:21:06.935Z,13.07
2022-09-28T20:23:36.306Z,13.08
2022-09-28T20:26:04.745Z,12.94
2022-09-28T20:28:32.174Z,12.62
2022-09-28T20:31:24.522Z,12.76
2022-09-28T20:33:51.807Z,12.42
2022-09-28T20:36:20.986Z,12.76
2022-09-28T20:38:58.365Z,12.85
2022-09-28T20:41:25.663Z,12.77
2022-09-28T20:43:54.552Z,12.38
2022-09-28T20:46:22.158Z,12.20
2022-09-28T20:48:52.163Z,12.68
2022-09-28T20:51:20.299Z,12.96
2022-09-28T20:53:49.159Z,12.78
2022-09-28T20:56:22.807Z,12.98
2022-09-28T20:58:51.072Z,12.84
2022-09-28T21:01:23.563Z,12.71
2022-09-28T21:03:53.132Z,13.05
2022-09-28T21:06:21.938Z,13.04
2022-09-28T21:08:49.611Z,12.63
2022-09-28T21:11:21.354Z,12.94
2022-09-28T21:13:48.558Z,12.93
2022-09-28T21:16:16.303Z,13.10
2022-09-28T21:18:42.937Z,12.81
2022-09-28T21:21:12.798Z,12.84
2022-09-28T21:23:39.692Z,12.73
2022-09-28T21:26:24.583Z,12.70
2022-09-28T21:29:00.195Z,12.73
2022-09-28T21:31:29.655Z,12.67
2022-09-28T21:33:57.263Z,12.53
2022-09-28T21:36:24.711Z,12.82
2022-09-28T21:38:51.427Z,13.01
2022-09-28T21:41:18.064Z,12.98
2022-09-28T21:43:45.599Z,13.05
2022-09-28T21:46:12.251Z,13.13
2022-09-28T21:48:38.971Z,13.16
2022-09-28T21:51:07.655Z,12.99
2022-09-28T21:53:36.025Z,13.13
2022-09-28T21:56:04.493Z,13.22
2022-09-28T21:58:33.281Z,13.15
2022-09-28T22:01:05.419Z,13.25
2022-09-28T22:03:33.475Z,13.38
2022-09-28T22:05:59.954Z,12.44
2022-09-28T22:08:27.134Z,12.63
2022-09-28T22:11:00.866Z,12.89
2022-09-28T22:13:32.431Z,12.29
2022-09-28T22:15:59.402Z,12.36
2022-09-28T22:18:27.338Z,12.53
2022-09-28T22:21:00.404Z,12.79
2022-09-28T22:23:28.175Z,12.71
2022-09-28T22:26:09.739Z,12.93
2022-09-28T22:28:36.686Z,12.86
2022-09-28T22:31:04.059Z,12.61
2022-09-28T22:33:30.664Z,12.74
2022-09-28T22:35:57.149Z,12.73
2022-09-28T22:38:24.704Z,12.72
2022-09-28T22:40:54.515Z,13.05
2022-09-28T22:43:23.394Z,12.76
2022-09-28T22:45:50.182Z,12.35
2022-09-28T22:48:16.882Z,12.66
2022-09-28T22:50:50.785Z,12.68
2022-09-28T22:53:18.138Z,12.81
2022-09-28T22:55:44.843Z,12.70
2022-09-28T22:58:11.982Z,12.48
2022-09-28T23:00:38.805Z,12.29
2022-09-28T23:03:05.494Z,12.29
2022-09-28T23:05:32.103Z,11.77
2022-09-28T23:07:58.627Z,11.87
2022-09-28T23:10:25.152Z,11.49
2022-09-28T23:12:53.726Z,11.80
2022-09-28T23:15:21.562Z,11.52
2022-09-28T23:17:52.334Z,11.64
2022-09-28T23:20:22.400Z,11.73
2022-09-28T23:22:56.608Z,11.63
2022-09-28T23:25:23.186Z,11.41
2022-09-28T23:27:50.716Z,11.29
2022-09-28T23:30:18.763Z,11.30
2022-09-28T23:32:45.695Z,11.32
2022-09-28T23:35:13.527Z,11.53
2022-09-28T23:37:39.979Z,11.49
2022-09-28T23:40:07.033Z,11.32
2022-09-28T23:42:34.916Z,11.53
2022-09-28T23:45:01.469Z,11.41
2022-09-28T23:47:27.985Z,11.73
2022-09-28T23:49:54.438Z,11.71
2022-09-28T23:52:20.938Z,11.68
2022-09-28T23:54:47.383Z,11.43
2022-09-28T23:57:13.867Z,11.67
2022-09-28T23:59:40.382Z,11.89
